Time;durP1;ratioP1;P1;durP2;ratioP2;P2;SDS_P1;SDS_P2;PMS_P1;PMS_P2;Temp;Humidity;BMP_temperature;BMP_pressure;BME280_temperature;BME280_humidity;BME280_pressure;Samples;Min_cycle;Max_cycle;Signal;HPM_P1;HPM_P2
2022/03/20 00:02:03;;;;;;;13.38;5.85;;;;;;;3.48;37.47;101808.66;5045242;28;20131;-51
2022/03/20 00:04:29;;;;;;;25.17;6.32;;;;;;;3.46;37.47;101802.59;5030371;28;20045;-54
2022/03/20 00:06:56;;;;;;;17.30;6.35;;;;;;;3.42;37.56;101806.78;5030886;28;20046;-53
2022/03/20 00:09:22;;;;;;;12.95;6.63;;;;;;;3.46;38.09;101800.03;5028810;28;20106;-55
2022/03/20 00:11:47;;;;;;;13.70;7.32;;;;;;;3.45;38.19;101802.59;5029250;28;20536;-54
2022/03/20 00:14:13;;;;;;;16.45;6.50;;;;;;;3.42;38.24;101801.66;5030420;28;20041;-51
2022/03/20 00:16:39;;;;;;;15.50;6.63;;;;;;;3.34;37.98;101779.13;5029863;28;20045;-54
2022/03/20 00:19:05;;;;;;;13.05;5.95;;;;;;;3.44;38.09;101804.28;5030321;28;20041;-51
2022/03/20 00:21:31;;;;;;;13.95;5.78;;;;;;;3.43;37.97;101794.81;5029635;28;20604;-53
2022/03/20 00:23:57;;;;;;;14.32;5.60;;;;;;;3.21;38.26;101756.47;5011996;28;20045;-53
2022/03/20 00:26:23;;;;;;;21.27;6.35;;;;;;;3.41;38.43;101786.16;5030412;28;20052;-51
2022/03/20 00:28:50;;;;;;;12.68;5.28;;;;;;;3.46;38.50;101794.88;5028289;28;20041;-53
2022/03/20 00:31:20;;;;;;;13.35;5.78;;;;;;;3.38;38.32;101786.09;5027357;28;20403;-50
2022/03/20 00:33:46;;;;;;;14.32;5.82;;;;;;;3.44;38.73;101790.53;5011024;28;20041;-52
2022/03/20 00:36:11;;;;;;;15.95;5.47;;;;;;;3.40;38.64;101787.03;5027757;28;20061;-52
2022/03/20 00:38:37;;;;;;;14.68;5.75;;;;;;;3.41;38.74;101788.75;5030974;28;20029;-54
2022/03/20 00:41:03;;;;;;;16.05;6.50;;;;;;;3.42;38.69;101785.34;5030323;28;20138;-54
2022/03/20 00:43:29;;;;;;;15.75;5.97;;;;;;;3.40;38.73;101784.47;5012264;28;20459;-52
2022/03/20 00:45:54;;;;;;;14.93;6.55;;;;;;;3.40;38.97;101790.44;5030243;28;20402;-51
2022/03/20 00:48:21;;;;;;;12.98;6.15;;;;;;;3.28;39.12;101764.41;5030498;28;20041;-54
2022/03/20 00:50:47;;;;;;;13.70;5.65;;;;;;;3.40;39.17;101784.47;5026817;28;20463;-54
2022/03/20 00:53:13;;;;;;;16.88;6.55;;;;;;;3.41;39.57;101770.75;5028780;28;20099;-52
2022/03/20 00:55:39;;;;;;;16.77;6.32;;;;;;;3.41;39.40;101776.75;5029822;28;20045;-52
2022/03/20 00:58:05;;;;;;;16.45;6.40;;;;;;;3.40;39.59;101769.03;5028994;28;20156;-51
2022/03/20 01:00:32;;;;;;;14.10;6.40;;;;;;;3.16;39.94;101729.75;5029541;28;20096;-51
2022/03/20 01:02:59;;;;;;;13.60;6.13;;;;;;;3.40;40.08;101776.75;5028927;28;20508;-49
2022/03/20 01:05:25;;;;;;;12.68;6.25;;;;;;;3.40;39.79;101784.47;5029803;28;20043;-52
2022/03/20 01:07:51;;;;;;;14.55;6.40;;;;;;;3.32;40.07;101766.22;5030397;28;20136;-51
2022/03/20 01:10:16;;;;;;;13.38;5.82;;;;;;;3.37;40.12;101776.63;5029790;28;20085;-54
2022/03/20 01:12:42;;;;;;;10.15;5.63;;;;;;;3.37;40.53;101772.38;5030526;28;20041;-53
2022/03/20 01:15:10;;;;;;;12.40;6.05;;;;;;;3.33;40.58;101775.69;5015391;28;20073;-56
2022/03/20 01:17:36;;;;;;;10.38;5.68;;;;;;;3.34;40.41;101776.56;4993093;28;20052;-52
2022/03/20 01:20:03;;;;;;;16.60;6.82;;;;;;;3.33;40.86;101780.81;5015284;28;20045;-49
2022/03/20 01:22:29;;;;;;;13.02;6.32;;;;;;;3.19;40.45;101747.84;5033742;28;20049;-51
2022/03/20 01:24:55;;;;;;;14.48;6.10;;;;;;;3.31;40.89;101781.59;5032293;28;20551;-51
2022/03/20 01:27:21;;;;;;;13.80;6.10;;;;;;;3.29;40.94;101779.00;5022330;28;20133;-55
2022/03/20 01:29:46;;;;;;;13.20;5.78;;;;;;;3.28;40.98;101784.09;5021413;28;20054;-52
2022/03/20 01:32:12;;;;;;;13.23;5.85;;;;;;;3.28;41.49;101769.53;5002783;28;20048;-53
2022/03/20 01:34:38;;;;;;;13.98;6.25;;;;;;;3.21;41.48;101761.59;5014353;28;20045;-53
2022/03/20 01:37:05;;;;;;;15.07;5.63;;;;;;;3.29;41.77;101773.00;5048964;28;20041;-55
2022/03/20 01:39:31;;;;;;;15.63;6.47;;;;;;;3.29;41.28;101766.16;5032826;28;20132;-53
2022/03/20 01:41:57;;;;;;;11.25;5.93;;;;;;;3.30;41.66;101773.00;5030582;28;20052;-53
2022/03/20 01:44:31;;;;;;;14.82;6.43;;;;;;;3.28;41.86;101758.38;5029596;28;20484;-50
2022/03/20 01:46:57;;;;;;;11.85;6.22;;;;;;;3.22;41.90;101760.78;5030152;28;20041;-51
2022/03/20 01:49:23;;;;;;;10.73;5.63;;;;;;;3.26;41.99;101758.34;5023486;28;20077;-56
2022/03/20 01:54:34;;;;;;;16.13;6.38;;;;;;;3.28;42.66;101754.13;5030504;28;20541;-51
2022/03/20 01:57:00;;;;;;;14.63;6.45;;;;;;;3.27;42.55;101749.81;5030760;28;20051;-52
2022/03/20 01:59:25;;;;;;;9.80;5.75;;;;;;;3.26;42.73;101748.06;5032566;28;20573;-53
2022/03/20 02:01:51;;;;;;;13.07;6.60;;;;;;;3.13;42.78;101727.97;5033307;28;20042;-52
2022/03/20 02:04:17;;;;;;;14.85;6.40;;;;;;;3.23;43.14;101745.41;5033409;28;20527;-49
2022/03/20 02:06:43;;;;;;;12.70;6.00;;;;;;;3.23;43.24;101745.41;5031827;28;20046;-50
2022/03/20 02:09:10;;;;;;;15.30;6.95;;;;;;;3.24;43.23;101744.59;5030071;28;20045;-56
2022/03/20 02:11:36;;;;;;;10.75;5.90;;;;;;;3.21;43.40;101741.03;5031848;28;20429;-51
2022/03/20 02:14:04;;;;;;;15.25;6.40;;;;;;;3.23;43.84;101736.81;5031331;28;20033;-51
2022/03/20 02:16:31;;;;;;;13.05;6.40;;;;;;;3.20;43.79;101732.44;5033401;28;20038;-55
2022/03/20 02:18:58;;;;;;;10.32;5.90;;;;;;;3.20;43.90;101732.44;5031386;28;20045;-50
2022/03/20 02:21:41;;;;;;;14.02;6.35;;;;;;;3.18;44.09;101731.56;5032022;28;20060;-49
2022/03/20 02:24:44;;;;;;;10.93;5.85;;;;;;;3.16;44.23;101729.75;5031712;28;20069;-52
2022/03/20 02:27:24;;;;;;;13.60;6.65;;;;;;;3.11;44.14;101719.34;5032862;28;20037;-50
2022/03/20 02:29:50;;;;;;;15.48;6.75;;;;;;;3.13;44.39;101721.97;5030727;28;20069;-50
2022/03/20 02:32:18;;;;;;;12.73;6.05;;;;;;;3.10;44.36;101720.16;5032564;28;20069;-49
2022/03/20 02:34:48;;;;;;;12.90;5.82;;;;;;;3.09;44.65;101721.00;5031051;28;20037;-52
2022/03/20 02:37:15;;;;;;;12.35;5.78;;;;;;;3.08;44.68;101726.09;5032920;28;20121;-50
2022/03/20 02:39:41;;;;;;;12.90;6.50;;;;;;;3.07;44.48;101727.81;5030913;28;20041;-55
2022/03/20 02:42:07;;;;;;;14.75;6.57;;;;;;;3.00;44.24;101718.16;5031655;28;20045;-51
2022/03/20 02:44:53;;;;;;;13.23;6.45;;;;;;;3.00;44.54;101720.75;5032098;28;20042;-51
2022/03/20 02:47:23;;;;;;;16.70;6.72;;;;;;;2.94;44.31;101712.84;5032358;28;20048;-53
2022/03/20 02:49:56;;;;;;;;;;;;;;;3.00;44.53;101718.16;5014202;28;20079;-52
2022/03/20 02:52:24;;;;;;;16.02;6.60;;;;;;;2.96;44.30;101709.50;5032688;28;19924;-51
2022/03/20 02:54:51;;;;;;;18.85;7.03;;;;;;;2.93;44.51;101716.28;5032641;28;20046;-52
2022/03/20 02:57:17;;;;;;;16.55;6.72;;;;;;;2.91;44.40;101717.91;5031078;28;20563;-52
2022/03/20 02:59:42;;;;;;;16.13;7.15;;;;;;;2.87;44.37;101716.09;5030385;28;20053;-53
2022/03/20 03:02:11;;;;;;;17.48;7.18;;;;;;;2.70;44.68;101695.03;5016469;28;20053;-50
2022/03/20 03:04:43;;;;;;;13.98;6.85;;;;;;;2.55;44.60;101666.34;5030827;28;20084;-51
2022/03/20 03:07:09;;;;;;;14.05;7.25;;;;;;;2.75;44.59;101716.59;5032356;28;20069;-52
2022/03/20 03:12:21;;;;;;;13.98;6.57;;;;;;;2.43;44.93;101683.94;5032259;28;20044;-54
2022/03/20 03:17:36;;;;;;;16.67;7.28;;;;;;;2.55;45.36;101709.97;5031067;28;20092;-56
2022/03/20 03:20:02;;;;;;;16.02;7.88;;;;;;;2.54;45.74;101701.41;5011427;28;20053;-56
2022/03/20 03:22:29;;;;;;;18.55;7.30;;;;;;;2.54;45.59;101703.09;4998634;28;20064;-57
2022/03/20 03:24:55;;;;;;;12.57;6.38;;;;;;;2.56;45.25;101707.44;4982253;28;20033;-53
2022/03/20 03:27:21;;;;;;;19.52;7.53;;;;;;;2.53;45.71;101707.34;5032060;28;20927;-51
2022/03/20 03:29:47;;;;;;;22.08;7.35;;;;;;;2.58;45.95;101712.63;5024395;28;20033;-51
2022/03/20 03:32:13;;;;;;;17.85;7.32;;;;;;;2.48;45.86;101690.06;5011978;28;20155;-50
2022/03/20 03:37:24;;;;;;;12.30;6.65;;;;;;;2.60;46.00;101705.84;5031369;28;20030;-52
2022/03/20 03:39:50;;;;;;;16.05;7.40;;;;;;;2.59;45.87;101709.25;5030259;28;20180;-54
2022/03/20 03:42:16;;;;;;;15.93;6.90;;;;;;;2.64;45.83;101711.94;5023300;28;20176;-53
2022/03/20 03:44:42;;;;;;;14.68;6.28;;;;;;;2.64;45.82;101709.38;5017060;28;20190;-51
2022/03/20 03:47:08;;;;;;;15.52;6.88;;;;;;;2.66;45.80;101707.75;5031489;28;20045;-55
2022/03/20 03:49:34;;;;;;;15.48;7.03;;;;;;;2.67;46.46;101709.50;5021868;28;20172;-52
2022/03/20 03:52:03;;;;;;;14.82;6.82;;;;;;;2.70;46.55;101700.16;5038863;28;20044;-54
2022/03/20 03:54:29;;;;;;;14.85;7.22;;;;;;;2.70;46.89;101704.44;5043975;28;20539;-50
2022/03/20 03:56:55;;;;;;;16.33;6.93;;;;;;;2.72;46.84;101695.09;5031373;28;20033;-54
2022/03/20 03:59:20;;;;;;;13.32;6.63;;;;;;;2.75;46.76;101697.72;5031674;28;20517;-51
2022/03/20 04:01:46;;;;;;;11.85;6.50;;;;;;;2.72;46.96;101695.09;5030091;28;20059;-55
2022/03/20 04:04:12;;;;;;;12.00;6.32;;;;;;;2.67;46.92;101694.94;5031254;28;20128;-52
2022/03/20 04:06:38;;;;;;;14.63;6.72;;;;;;;2.75;47.32;101687.47;5031342;28;20541;-55
2022/03/20 04:09:04;;;;;;;17.77;6.28;;;;;;;2.77;47.46;101681.56;5027592;28;20045;-53
2022/03/20 04:11:30;;;;;;;13.00;6.40;;;;;;;2.74;47.39;101678.88;5026832;28;20147;-54
2022/03/20 04:13:56;;;;;;;14.18;6.75;;;;;;;2.83;47.15;101675.69;5011448;28;20053;-51
2022/03/20 04:16:22;;;;;;;13.60;7.15;;;;;;;2.79;47.23;101661.03;5029601;28;20040;-51
2022/03/20 04:18:47;;;;;;;16.25;6.70;;;;;;;2.94;47.01;101685.47;5031005;28;20071;-52
2022/03/20 04:21:13;;;;;;;17.15;7.35;;;;;;;2.84;47.48;101670.59;5030155;28;20436;-52
2022/03/20 04:23:48;;;;;;;17.02;6.70;;;;;;;2.98;47.41;101684.72;5031006;28;20033;-51
2022/03/20 04:26:18;;;;;;;14.73;7.18;;;;;;;3.06;47.45;101679.81;5030735;28;20045;-56
2022/03/20 04:28:46;;;;;;;16.05;7.03;;;;;;;2.96;47.14;101652.97;5029616;28;20574;-51
2022/03/20 04:31:16;;;;;;;16.00;7.15;;;;;;;3.14;47.47;101675.72;5011827;28;20042;-55
2022/03/20 04:33:48;;;;;;;22.33;7.45;;;;;;;3.05;47.88;101660.06;5009388;28;20041;-52
2022/03/20 04:36:14;;;;;;;15.40;7.70;;;;;;;3.19;47.65;101669.00;4994000;28;20124;-51
2022/03/20 04:38:40;;;;;;;15.40;6.93;;;;;;;3.20;47.84;101673.34;5009977;28;20504;-60
2022/03/20 04:41:06;;;;;;;15.82;6.90;;;;;;;3.08;48.16;101644.75;5028077;28;20126;-66
2022/03/20 04:43:32;;;;;;;13.80;7.60;;;;;;;3.29;47.89;101681.31;5030219;28;20033;-46
2022/03/20 04:45:59;;;;;;;13.40;6.80;;;;;;;3.31;48.04;101671.94;5029499;28;20103;-49
2022/03/20 04:59:22;;;;;;;14.45;7.50;;;;;;;3.54;47.68;101671.66;5029843;28;20136;-49
2022/03/20 05:01:48;;;;;;;14.95;6.60;;;;;;;3.57;47.84;101674.31;5036014;28;20163;-50
2022/03/20 05:04:14;;;;;;;20.60;7.63;;;;;;;3.50;47.44;101663.03;5036321;28;20416;-52
2022/03/20 05:06:42;;;;;;;14.15;7.20;;;;;;;3.56;47.60;101676.00;5028833;28;20046;-49
2022/03/20 05:14:36;;;;;;;12.52;6.47;;;;;;;3.39;48.26;101649.88;5026271;28;20068;-52
2022/03/20 05:17:06;;;;;;;11.88;6.85;;;;;;;3.51;48.18;101651.03;5029146;28;20129;-50
2022/03/20 05:19:36;;;;;;;15.30;6.88;;;;;;;3.57;48.26;101649.47;5028627;28;20104;-47
2022/03/20 05:22:02;;;;;;;;;;;;;;;3.65;48.24;101655.69;5029553;28;20045;-51
2022/03/20 05:24:28;;;;;;;15.43;6.38;;;;;;;3.64;48.18;101653.94;5011007;28;19916;-51
2022/03/20 05:26:54;;;;;;;15.95;7.10;;;;;;;3.53;48.16;101629.66;5026003;28;20038;-49
2022/03/20 05:29:20;;;;;;;12.38;6.25;;;;;;;3.66;48.28;101644.56;5026759;28;20095;-48
2022/03/20 05:31:46;;;;;;;12.75;6.10;;;;;;;3.68;48.50;101642.03;5008817;28;20050;-47
2022/03/20 05:34:12;;;;;;;12.57;5.88;;;;;;;3.72;48.32;101636.09;5023867;28;20164;-46
2022/03/20 05:36:38;;;;;;;11.50;5.70;;;;;;;3.74;48.43;101632.75;5028287;28;20128;-46
2022/03/20 05:39:04;;;;;;;14.07;6.18;;;;;;;3.74;48.83;101629.31;5028910;28;20159;-47
2022/03/20 05:41:49;;;;;;;16.75;5.95;;;;;;;3.73;48.86;101630.13;5027954;28;20046;-48
2022/03/20 05:44:20;;;;;;;9.75;5.68;;;;;;;3.72;48.77;101623.25;5028257;28;20045;-50
2022/03/20 05:46:48;;;;;;;13.65;6.28;;;;;;;3.62;49.17;101613.56;5022714;28;20042;-45
2022/03/20 05:49:18;;;;;;;12.25;6.03;;;;;;;3.88;48.82;101629.63;5027749;28;20048;-48
2022/03/20 05:51:46;;;;;;;12.95;6.00;;;;;;;4.05;48.52;101625.75;5032163;28;20037;-47
2022/03/20 05:54:12;;;;;;;13.95;5.75;;;;;;;4.34;47.83;101623.88;5028748;28;20048;-48
2022/03/20 05:59:23;;;;;;;12.02;5.78;;;;;;;5.66;45.54;101616.97;5012962;28;20057;-48
2022/03/20 06:01:51;;;;;;;11.63;5.22;;;;;;;6.65;43.32;101603.78;5026359;28;20033;-49
2022/03/20 06:04:18;;;;;;;12.25;5.53;;;;;;;7.61;41.43;101603.09;5036841;28;20639;-48
2022/03/20 06:06:44;;;;;;;12.05;6.10;;;;;;;8.40;39.98;101600.22;5030619;28;20087;-49
2022/03/20 06:09:10;;;;;;;12.32;5.97;;;;;;;9.30;38.36;101593.59;5031779;28;20429;-47
2022/03/20 06:11:36;;;;;;;11.07;5.88;;;;;;;10.27;37.14;101592.69;5032559;28;20038;-46
2022/03/20 06:14:06;;;;;;;9.27;5.65;;;;;;;10.87;35.70;101589.00;5025655;28;20048;-52
2022/03/20 06:16:32;;;;;;;9.63;5.78;;;;;;;11.61;34.25;101585.91;5025012;28;20037;-48
2022/03/20 06:18:59;;;;;;;10.20;5.55;;;;;;;12.37;32.96;101587.78;5001257;28;20539;-49
2022/03/20 06:21:28;;;;;;;11.50;5.57;;;;;;;12.83;31.71;101590.69;5031639;28;20124;-49
2022/03/20 06:23:54;;;;;;;8.98;5.45;;;;;;;13.52;31.09;101591.47;5015455;28;20581;-49
2022/03/20 06:26:24;;;;;;;12.20;5.30;;;;;;;14.24;30.12;101591.06;5014857;28;20501;-48
2022/03/20 06:28:52;;;;;;;9.77;5.22;;;;;;;14.62;29.54;101579.88;5022182;28;20517;-48
2022/03/20 06:31:19;;;;;;;9.63;5.47;;;;;;;15.18;28.44;101565.53;5031003;28;20041;-50
2022/03/20 06:33:46;;;;;;;9.00;5.80;;;;;;;15.76;27.79;101573.75;5032753;28;20485;-47
2022/03/20 06:36:12;;;;;;;9.35;5.60;;;;;;;16.29;26.89;101570.56;5032898;28;20052;-47
2022/03/20 06:38:38;;;;;;;9.38;5.50;;;;;;;17.00;26.30;101565.03;5012794;28;20045;-48
2022/03/20 06:41:06;;;;;;;8.55;5.65;;;;;;;17.27;25.39;101561.50;5031184;28;20045;-47
2022/03/20 06:43:36;;;;;;;11.27;5.82;;;;;;;17.76;25.19;101555.53;5036252;28;20120;-47
2022/03/20 06:46:03;;;;;;;9.10;5.45;;;;;;;18.48;24.58;101560.84;5048134;28;20045;-48
2022/03/20 06:48:29;;;;;;;9.50;5.90;;;;;;;19.06;24.08;101564.78;5025810;28;20037;-47
2022/03/20 06:50:55;;;;;;;10.65;5.80;;;;;;;19.68;23.38;101553.53;5030912;28;20048;-47
2022/03/20 06:53:21;;;;;;;9.38;5.80;;;;;;;20.19;22.54;101559.19;5031265;28;20132;-48
2022/03/20 06:55:48;;;;;;;14.10;6.07;;;;;;;20.53;22.73;101544.47;5031938;28;20132;-49
2022/03/20 06:58:17;;;;;;;11.20;6.53;;;;;;;20.99;22.32;101554.59;5029487;28;20056;-51
2022/03/20 07:00:43;;;;;;;14.07;6.13;;;;;;;21.35;22.20;101556.44;5031280;28;20065;-48
2022/03/20 07:03:09;;;;;;;13.57;6.60;;;;;;;21.80;21.68;101547.97;5014937;28;20045;-50
2022/03/20 07:05:36;;;;;;;10.85;6.03;;;;;;;22.09;21.54;101544.69;5029959;28;20124;-51
2022/03/20 07:08:04;;;;;;;10.90;5.75;;;;;;;22.41;21.16;101548.28;5011691;28;20101;-51
2022/03/20 07:10:30;;;;;;;8.38;5.15;;;;;;;22.29;20.91;101541.00;5024631;28;20049;-48
2022/03/20 07:15:42;;;;;;;10.05;5.82;;;;;;;23.06;20.33;101535.88;5011939;28;20049;-47
2022/03/20 07:18:12;;;;;;;7.57;4.90;;;;;;;22.39;20.48;101524.53;5025656;28;20438;-51
2022/03/20 07:20:39;;;;;;;8.95;5.90;;;;;;;22.49;20.60;101537.28;5029689;28;20041;-49
2022/03/20 07:23:09;;;;;;;8.25;5.72;;;;;;;22.69;20.25;101535.25;5015354;28;20044;-54
2022/03/20 07:31:07;;;;;;;10.48;5.82;;;;;;;24.24;19.06;101528.84;5019466;28;20099;-53
2022/03/20 07:33:33;;;;;;;9.30;5.97;;;;;;;24.78;18.48;101523.66;5027408;28;20049;-50
2022/03/20 07:36:00;;;;;;;10.05;6.15;;;;;;;25.03;17.85;101512.28;5029665;28;20045;-58
2022/03/20 07:38:38;;;;;;;6.40;5.35;;;;;;;24.84;18.13;101505.50;5008725;28;20038;-46
2022/03/20 07:41:03;;;;;;;9.53;5.37;;;;;;;25.53;17.84;101512.47;5030693;28;20041;-48
2022/03/20 07:43:29;;;;;;;9.40;5.57;;;;;;;25.88;17.18;101520.72;5005975;28;20057;-48
2022/03/20 07:45:58;;;;;;;8.45;5.25;;;;;;;26.37;16.69;101520.00;5007114;28;20053;-45
2022/03/20 07:48:24;;;;;;;7.20;5.18;;;;;;;26.34;16.47;101523.72;5025101;28;20051;-47
2022/03/20 07:50:50;;;;;;;10.25;5.28;;;;;;;25.76;16.93;101513.56;5025864;28;20037;-49
2022/03/20 07:53:17;;;;;;;8.13;5.30;;;;;;;26.14;16.71;101497.56;5025990;28;20038;-50
2022/03/20 07:55:45;;;;;;;8.02;5.15;;;;;;;26.37;16.30;101502.19;5026484;28;20049;-47
2022/03/20 07:58:12;;;;;;;9.30;5.60;;;;;;;26.82;16.29;101495.31;5029966;28;20037;-45
2022/03/20 08:00:39;;;;;;;7.18;5.25;;;;;;;26.96;16.29;101489.84;5027197;28;20053;-46
2022/03/20 08:03:06;;;;;;;7.38;4.85;;;;;;;26.68;16.22;101494.63;5027062;28;20037;-46
2022/03/20 08:05:32;;;;;;;10.60;5.10;;;;;;;26.50;16.06;101489.66;5025986;28;20042;-45
2022/03/20 08:07:58;;;;;;;8.65;4.78;;;;;;;26.79;15.63;101487.53;4991757;28;20095;-44
2022/03/20 08:10:24;;;;;;;7.57;4.85;;;;;;;26.41;15.89;101471.66;5023539;28;20432;-46
2022/03/20 08:12:50;;;;;;;7.70;4.82;;;;;;;26.39;15.64;101473.56;5023420;28;20114;-46
2022/03/20 08:15:17;;;;;;;5.00;4.40;;;;;;;26.39;15.63;101470.03;5032213;28;20045;-47
2022/03/20 08:17:46;;;;;;;7.63;4.82;;;;;;;26.72;15.50;101464.06;5003049;28;20517;-52
2022/03/20 08:20:14;;;;;;;7.40;5.03;;;;;;;27.28;15.23;101458.03;5024561;28;20078;-51
2022/03/20 08:22:40;;;;;;;7.43;5.15;;;;;;;27.66;14.96;101446.25;5006543;28;20041;-45
2022/03/20 08:25:07;;;;;;;7.63;5.60;;;;;;;27.84;14.61;101447.50;5026060;28;20042;-48
2022/03/20 08:28:03;;;;;;;9.60;5.35;;;;;;;28.24;14.31;101437.19;5029578;28;20037;-43
2022/03/20 08:30:29;;;;;;;7.13;4.97;;;;;;;28.57;13.97;101439.81;5019147;28;20045;-46
2022/03/20 08:32:55;;;;;;;7.07;4.75;;;;;;;27.94;14.23;101437.78;5011168;28;20041;-46
2022/03/20 08:35:20;;;;;;;8.40;5.35;;;;;;;28.00;14.26;101433.78;5028958;28;20037;-47
2022/03/20 08:37:49;;;;;;;16.85;6.13;;;;;;;28.37;14.20;101429.84;4996685;28;20133;-48
2022/03/20 08:40:17;;;;;;;9.57;5.43;;;;;;;28.67;13.99;101429.19;5013303;28;20045;-47
2022/03/20 08:42:47;;;;;;;8.00;4.82;;;;;;;28.77;13.71;101429.31;4980122;28;20072;-48
2022/03/20 08:45:14;;;;;;;7.30;4.95;;;;;;;29.04;13.77;101435.91;5008275;28;20030;-45
2022/03/20 08:47:40;;;;;;;9.77;4.07;;;;;;;28.62;13.46;101432.25;5021043;28;20116;-41
2022/03/20 08:50:07;;;;;;;7.50;3.90;;;;;;;29.05;12.88;101423.31;5028830;28;20132;-40
2022/03/20 08:52:33;;;;;;;6.03;3.42;;;;;;;29.42;12.47;101416.56;5029353;28;20438;-41
2022/03/20 08:54:59;;;;;;;5.45;3.67;;;;;;;29.89;12.24;101415.16;5008566;28;20124;-44
2022/03/20 08:57:27;;;;;;;5.78;4.25;;;;;;;30.07;11.99;101409.16;5030175;28;20042;-44
2022/03/20 08:59:54;;;;;;;7.85;4.00;;;;;;;30.39;11.58;101414.31;5012206;28;20060;-43
2022/03/20 09:02:20;;;;;;;8.15;4.03;;;;;;;30.39;11.58;101411.63;5013300;28;20152;-46
2022/03/20 09:04:46;;;;;;;9.07;4.38;;;;;;;30.05;11.85;101390.50;5008212;28;20046;-42
2022/03/20 09:07:12;;;;;;;7.43;4.07;;;;;;;30.18;11.77;101399.16;4996377;28;20476;-45
2022/03/20 09:09:38;;;;;;;5.38;3.80;;;;;;;30.13;11.50;101405.94;5029074;28;20037;-46
2022/03/20 09:12:04;;;;;;;5.57;3.28;;;;;;;30.30;11.42;101398.03;5029109;28;20047;-44
2022/03/20 09:14:30;;;;;;;3.65;2.83;;;;;;;30.11;10.69;101398.00;5012219;28;20412;-45
2022/03/20 09:19:40;;;;;;;7.43;2.55;;;;;;;30.77;10.60;101390.25;5028362;28;20475;-43
2022/03/20 09:22:06;;;;;;;11.82;3.28;;;;;;;30.97;9.96;101378.50;5008969;28;20042;-42
2022/03/20 09:24:33;;;;;;;5.63;3.10;;;;;;;31.03;9.88;101377.97;5016601;28;20041;-42
2022/03/20 09:27:00;;;;;;;5.97;2.63;;;;;;;31.51;9.86;101376.97;4994568;28;20041;-43
2022/03/20 09:29:26;;;;;;;7.53;2.63;;;;;;;31.77;9.61;101387.97;4991461;28;20037;-44
2022/03/20 09:31:53;;;;;;;4.25;2.78;;;;;;;32.09;9.52;101382.97;5010514;28;20042;-43
2022/03/20 09:34:18;;;;;;;4.15;2.60;;;;;;;31.62;9.26;101363.38;5021177;28;20100;-43
2022/03/20 09:36:44;;;;;;;8.73;2.17;;;;;;;31.27;8.73;101358.66;5024015;28;20502;-43
2022/03/20 09:39:11;;;;;;;6.38;2.13;;;;;;;31.16;8.93;101341.84;5009434;28;20068;-43
2022/03/20 09:41:41;;;;;;;4.07;1.77;;;;;;;30.49;8.83;101351.63;5043956;28;20513;-43
2022/03/20 09:44:07;;;;;;;9.85;2.10;;;;;;;30.92;8.78;101339.59;5019589;28;20041;-43
2022/03/20 09:46:34;;;;;;;2.67;1.85;;;;;;;30.40;8.65;101348.91;5032979;28;20069;-43
2022/03/20 09:49:01;;;;;;;3.50;1.80;;;;;;;30.34;8.66;101341.41;5066257;28;20048;-42
2022/03/20 09:51:27;;;;;;;3.65;2.05;;;;;;;30.55;8.39;101340.34;5016555;28;20575;-42
2022/03/20 09:53:53;;;;;;;4.38;1.70;;;;;;;30.99;8.43;101325.44;5030583;28;20069;-44
2022/03/20 09:56:18;;;;;;;18.02;2.38;;;;;;;31.61;8.17;101315.97;5014511;28;20111;-43
2022/03/20 09:58:44;;;;;;;4.45;1.33;;;;;;;32.13;7.77;101327.03;5013181;28;20519;-44
2022/03/20 10:01:11;;;;;;;2.95;1.75;;;;;;;32.11;7.61;101323.63;5034032;28;20045;-44
2022/03/20 10:03:36;;;;;;;5.80;2.70;;;;;;;32.31;7.75;101326.03;5031666;28;20060;-42
2022/03/20 10:06:06;;;;;;;7.50;1.70;;;;;;;32.71;7.58;101319.38;4980304;28;20501;-44
2022/03/20 10:08:56;;;;;;;2.28;1.85;;;;;;;32.36;7.24;101320.19;4997730;28;20045;-45
2022/03/20 10:11:23;;;;;;;7.28;2.00;;;;;;;31.86;7.50;101301.81;5014046;28;20057;-43
2022/03/20 10:14:15;;;;;;;8.93;2.05;;;;;;;32.38;8.06;101310.13;5014008;28;20092;-44
2022/03/20 10:16:48;;;;;;;1.85;1.50;;;;;;;32.35;7.92;101303.19;5012869;28;20054;-43
2022/03/20 10:19:22;;;;;;;4.82;1.67;;;;;;;32.66;7.53;101306.34;5013855;28;20084;-43
2022/03/20 10:21:57;;;;;;;3.42;1.60;;;;;;;32.82;7.42;101311.03;5014226;28;20056;-44
2022/03/20 10:24:24;;;;;;;24.02;3.33;;;;;;;32.73;7.30;101287.72;5020210;28;20037;-43
2022/03/20 10:27:04;;;;;;;6.75;1.98;;;;;;;32.91;7.50;101285.00;5016091;28;20092;-42
2022/03/20 10:29:32;;;;;;;3.05;1.75;;;;;;;32.72;7.47;101281.47;5027146;28;20048;-43
2022/03/20 10:32:03;;;;;;;;;;;;;;;32.82;7.72;101272.47;4980544;28;20108;-44
2022/03/20 10:34:28;;;;;;;6.47;1.95;;;;;;;33.11;7.79;101270.28;5019453;28;19951;-44
2022/03/20 10:36:54;;;;;;;4.72;2.00;;;;;;;33.31;7.67;101263.69;5015727;28;20037;-43
2022/03/20 10:39:21;;;;;;;3.65;1.73;;;;;;;33.26;7.63;101244.44;5032192;28;20042;-42
2022/03/20 10:41:54;;;;;;;5.68;1.95;;;;;;;33.31;7.45;101260.13;5032269;28;20056;-42
2022/03/20 10:44:25;;;;;;;4.97;2.20;;;;;;;33.41;7.83;101250.91;5030674;28;20527;-42
2022/03/20 10:46:59;;;;;;;6.85;2.22;;;;;;;33.41;7.58;101255.47;4998646;28;20041;-42
2022/03/20 10:49:25;;;;;;;5.95;2.10;;;;;;;33.44;7.58;101238.97;5031739;28;20525;-42
2022/03/20 10:52:22;;;;;;;11.30;2.50;;;;;;;33.53;7.83;101233.44;5013736;28;20041;-43
2022/03/20 10:54:53;;;;;;;5.72;2.20;;;;;;;33.58;7.81;101224.84;5006140;28;20521;-43
2022/03/20 10:57:19;;;;;;;4.40;2.20;;;;;;;33.50;7.60;101228.34;5011094;28;20042;-42
2022/03/20 11:00:07;;;;;;;4.88;2.10;;;;;;;33.20;7.71;101215.44;5018533;28;20049;-42
2022/03/20 11:02:37;;;;;;;4.22;1.70;;;;;;;32.82;7.46;101213.19;5024951;28;20052;-42
2022/03/20 11:05:02;;;;;;;5.97;1.98;;;;;;;31.97;8.11;101209.28;5031526;28;20037;-43
2022/03/20 11:07:29;;;;;;;7.00;2.05;;;;;;;32.08;8.47;101203.66;5015350;28;20413;-41
2022/03/20 11:09:55;;;;;;;12.43;2.17;;;;;;;32.15;7.98;101202.06;5024536;28;20053;-42
2022/03/20 11:12:28;;;;;;;4.15;1.90;;;;;;;31.71;8.59;101198.44;5011886;28;20045;-42
2022/03/20 11:14:56;;;;;;;9.82;2.50;;;;;;;31.89;8.40;101199.25;5034199;28;20454;-41
2022/03/20 11:17:26;;;;;;;3.40;1.77;;;;;;;32.02;8.18;101200.72;5032698;28;20098;-43
2022/03/20 11:19:54;;;;;;;4.70;2.03;;;;;;;32.02;8.33;101192.66;5024768;28;20129;-43
2022/03/20 11:22:21;;;;;;;5.00;1.73;;;;;;;31.98;8.71;101198.34;5011606;28;20433;-41
2022/03/20 11:24:48;;;;;;;5.33;2.43;;;;;;;32.20;8.71;101191.66;5011468;28;20341;-42
2022/03/20 11:27:28;;;;;;;9.30;2.13;;;;;;;32.35;8.64;101198.19;5011226;28;20050;-42
2022/03/20 11:30:06;;;;;;;2.60;2.25;;;;;;;32.16;8.94;101190.28;5030063;28;20044;-41
2022/03/20 11:32:33;;;;;;;3.67;1.75;;;;;;;32.10;9.02;101196.25;5030751;28;20042;-41
2022/03/20 11:34:59;;;;;;;5.32;2.15;;;;;;;32.00;9.25;101190.13;5014534;28;20091;-43
2022/03/20 11:37:47;;;;;;;9.00;2.38;;;;;;;32.22;9.16;101195.06;5031783;28;20077;-42
2022/03/20 11:40:20;;;;;;;5.03;2.45;;;;;;;32.22;8.81;101191.53;5029522;28;20056;-42
2022/03/20 11:42:47;;;;;;;5.72;2.97;;;;;;;31.89;9.29;101191.19;4997996;28;20132;-43
2022/03/20 11:45:19;;;;;;;6.75;2.17;;;;;;;31.62;9.78;101193.94;5029832;28;20040;-42
2022/03/20 11:47:48;;;;;;;7.75;2.78;;;;;;;31.31;9.57;101181.78;5031400;28;20048;-43
2022/03/20 11:50:20;;;;;;;11.52;2.30;;;;;;;30.74;9.89;101186.38;5019621;28;20037;-42
2022/03/20 11:52:53;;;;;;;5.53;2.30;;;;;;;30.51;10.20;101183.22;5029333;28;20155;-41
2022/03/20 11:55:32;;;;;;;8.77;2.35;;;;;;;30.52;10.04;101179.50;4996720;28;20511;-42
2022/03/20 11:58:04;;;;;;;5.28;2.67;;;;;;;30.39;10.38;101178.09;5031701;28;20041;-43
2022/03/20 12:00:32;;;;;;;3.83;1.90;;;;;;;29.98;10.66;101174.75;5051320;28;20574;-39
2022/03/20 12:03:13;;;;;;;7.22;2.63;;;;;;;29.54;11.12;101178.78;5030436;28;20133;-39
2022/03/20 12:05:42;;;;;;;6.03;2.10;;;;;;;28.92;11.25;101168.25;5029455;28;20041;-43
2022/03/20 12:08:08;;;;;;;5.18;2.40;;;;;;;28.48;11.54;101162.19;5030662;28;20099;-43
2022/03/20 12:10:45;;;;;;;2.95;2.10;;;;;;;28.00;11.76;101161.00;5030453;28;20041;-43
2022/03/20 12:13:25;;;;;;;5.17;2.53;;;;;;;27.72;12.10;101157.09;5014102;28;20041;-44